createdAt,value
2019-04-03T00:03:53.237Z,13.20
2019-04-03T00:07:57.921Z,13.10
2019-04-03T00:12:02.585Z,13.10
2019-04-03T00:16:08.353Z,13.00
2019-04-03T00:20:17.933Z,13.00
2019-04-03T00:24:22.977Z,12.90
2019-04-03T00:28:27.521Z,12.90
2019-04-03T00:32:32.209Z,12.80
2019-04-03T00:36:36.795Z,12.80
2019-04-03T00:40:41.392Z,12.80
2019-04-03T00:44:46.290Z,12.70
2019-04-03T00:48:55.326Z,12.60
2019-04-03T00:52:59.754Z,12.60
2019-04-03T00:57:07.317Z,12.60
2019-04-03T01:01:11.898Z,12.50
2019-04-03T01:05:16.364Z,12.50
2019-04-03T01:09:20.936Z,12.50
2019-04-03T01:13:25.510Z,12.40
2019-04-03T01:17:30.386Z,12.40
2019-04-03T01:21:36.854Z,12.40
2019-04-03T01:25:40.980Z,12.30
2019-04-03T01:29:46.197Z,12.20
2019-04-03T01:33:51.058Z,12.20
2019-04-03T01:37:55.604Z,12.20
2019-04-03T01:42:00.210Z,12.10
2019-04-03T01:46:05.813Z,12.10
2019-04-03T01:50:10.330Z,12.10
2019-04-03T01:54:15.166Z,12.00
2019-04-03T01:58:19.733Z,12.00
2019-04-03T02:02:24.295Z,12.00
2019-04-03T02:06:29.125Z,11.90
2019-04-03T02:10:33.913Z,11.90
2019-04-03T02:14:38.426Z,11.90
2019-04-03T02:18:43.496Z,11.80
2019-04-03T02:22:48.166Z,11.70
2019-04-03T02:26:52.876Z,11.70
2019-04-03T02:30:57.834Z,11.60
2019-04-03T02:35:06.779Z,11.60
2019-04-03T02:39:10.633Z,11.60
2019-04-03T02:43:16.680Z,11.60
2019-04-03T02:47:21.855Z,11.60
2019-04-03T02:51:26.959Z,11.50
2019-04-03T02:55:32.840Z,11.50
2019-04-03T02:59:39.286Z,11.50
2019-04-03T03:03:48.497Z,11.50
2019-04-03T03:07:52.988Z,11.50
2019-04-03T03:11:57.533Z,11.40
2019-04-03T03:16:03.620Z,11.40
2019-04-03T03:20:08.550Z,11.30
2019-04-03T03:24:13.355Z,11.30
2019-04-03T03:28:19.432Z,11.30
2019-04-03T03:32:31.350Z,11.30
2019-04-03T03:36:32.629Z,11.30
2019-04-03T03:40:37.179Z,11.20
2019-04-03T03:44:45.517Z,11.20
2019-04-03T03:48:50.597Z,11.20
2019-04-03T03:52:56.194Z,11.20
2019-04-03T03:57:04.271Z,11.10
2019-04-03T04:01:08.242Z,11.10
2019-04-03T04:05:13.527Z,11.10
2019-04-03T04:09:18.598Z,11.00
2019-04-03T04:13:24.314Z,11.00
2019-04-03T04:17:29.161Z,11.00
2019-04-03T04:21:33.881Z,10.90
2019-04-03T04:25:43.421Z,10.90
2019-04-03T04:29:48.527Z,10.80
2019-04-03T04:33:55.763Z,10.80
2019-04-03T04:38:01.843Z,10.80
2019-04-03T04:42:06.308Z,10.70
2019-04-03T04:46:13.304Z,10.70
2019-04-03T04:50:25.307Z,10.70
2019-04-03T04:54:30.623Z,10.70
2019-04-03T04:58:35.288Z,10.60
2019-04-03T05:02:39.672Z,10.60
2019-04-03T05:06:44.254Z,10.60
2019-04-03T05:10:49.455Z,10.60
2019-04-03T05:14:55.122Z,10.60
2019-04-03T05:19:09.710Z,10.50
2019-04-03T05:23:05.747Z,10.50
2019-04-03T05:27:10.218Z,10.50
2019-04-03T05:31:16.349Z,10.50
2019-04-03T05:35:21.252Z,10.50
2019-04-03T05:39:25.915Z,10.50
2019-04-03T05:43:30.857Z,10.50
2019-04-03T05:47:38.923Z,10.50
2019-04-03T05:51:42.707Z,10.50
2019-04-03T05:55:47.230Z,10.50
2019-04-03T05:59:59.782Z,10.50
2019-04-03T06:03:57.811Z,10.50
2019-04-03T06:08:03.254Z,10.60
2019-04-03T06:12:09.044Z,10.60
2019-04-03T06:16:16.515Z,10.60
2019-04-03T06:20:20.807Z,10.60
2019-04-03T06:24:25.360Z,10.70
2019-04-03T06:28:29.796Z,10.70
2019-04-03T06:32:34.323Z,10.70
2019-04-03T06:36:39.323Z,10.70
2019-04-03T06:40:43.929Z,10.80
2019-04-03T06:44:49.516Z,10.80
2019-04-03T06:48:55.664Z,10.90
2019-04-03T06:53:00.383Z,10.90
2019-04-03T06:57:06.552Z,11.00
2019-04-03T07:01:10.945Z,11.00
2019-04-03T07:05:15.418Z,11.10
2019-04-03T07:09:23.557Z,11.10
2019-04-03T07:13:29.121Z,11.10
2019-04-03T07:17:32.929Z,11.20
2019-04-03T07:21:37.537Z,11.30
2019-04-03T07:25:42.115Z,11.30
2019-04-03T07:29:48.942Z,11.40
2019-04-03T07:33:53.035Z,11.50
2019-04-03T07:37:57.524Z,11.50
2019-04-03T07:42:02.138Z,11.60
2019-04-03T07:46:06.607Z,11.60
2019-04-03T07:50:11.745Z,11.70
2019-04-03T07:54:16.344Z,11.80
2019-04-03T07:58:20.919Z,11.90
2019-04-03T08:02:25.813Z,11.90
2019-04-03T08:06:30.386Z,12.00
2019-04-03T08:10:37.275Z,12.10
2019-04-03T08:14:41.901Z,12.20
2019-04-03T08:18:46.598Z,12.30
2019-04-03T08:22:51.101Z,12.40
2019-04-03T08:26:55.754Z,12.40
2019-04-03T08:31:00.250Z,12.50
2019-04-03T08:35:18.723Z,12.60
2019-04-03T08:39:11.669Z,12.70
2019-04-03T08:43:16.326Z,12.80
2019-04-03T08:47:21.892Z,12.90
2019-04-03T08:51:26.355Z,13.00
2019-04-03T08:55:31.441Z,13.10
2019-04-03T08:59:36.077Z,13.20
2019-04-03T09:03:41.907Z,13.30
2019-04-03T09:07:46.716Z,13.40
2019-04-03T09:11:51.214Z,13.50
2019-04-03T09:15:58.622Z,13.60
2019-04-03T09:20:02.024Z,13.70
2019-04-03T09:24:06.490Z,13.80
2019-04-03T09:28:11.829Z,13.90
2019-04-03T09:32:16.458Z,13.90
2019-04-03T09:36:20.913Z,14.00
2019-04-03T09:40:25.419Z,14.10
2019-04-03T09:44:29.894Z,14.20
2019-04-03T09:48:37.100Z,14.30
2019-04-03T09:52:48.485Z,14.40
2019-04-03T09:56:57.803Z,14.50
2019-04-03T10:00:53.961Z,14.60
2019-04-03T10:04:59.068Z,14.70
2019-04-03T10:09:05.280Z,14.80
2019-04-03T10:13:10.108Z,14.90
2019-04-03T10:17:14.794Z,15.00
2019-04-03T10:21:19.916Z,15.20
2019-04-03T10:25:25.190Z,15.30
2019-04-03T10:29:29.770Z,15.40
2019-04-03T10:33:34.373Z,15.60
2019-04-03T10:37:38.949Z,15.70
2019-04-03T10:41:45.302Z,15.80
2019-04-03T10:45:49.978Z,16.00
2019-04-03T10:49:55.734Z,16.10
2019-04-03T10:54:03.476Z,16.30
2019-04-03T10:58:08.557Z,16.40
2019-04-03T11:02:13.608Z,16.50
2019-04-03T11:06:18.036Z,16.70
2019-04-03T11:10:24.144Z,16.80
2019-04-03T11:14:28.812Z,16.90
2019-04-03T11:18:33.844Z,17.00
2019-04-03T11:22:41.619Z,17.20
2019-04-03T11:26:44.398Z,17.20
2019-04-03T11:30:51.129Z,17.30
2019-04-03T11:34:55.278Z,17.40
2019-04-03T11:39:11.168Z,17.50
2019-04-03T11:43:07.954Z,17.60
2019-04-03T11:47:14.009Z,17.70
2019-04-03T11:51:18.816Z,17.80
2019-04-03T11:55:23.449Z,17.90
2019-04-03T11:59:28.345Z,17.90
2019-04-03T12:03:33.150Z,18.00
2019-04-03T12:07:37.682Z,18.10
2019-04-03T12:11:42.740Z,18.10
2019-04-03T12:15:47.328Z,18.20
2019-04-03T12:19:52.119Z,18.20
2019-04-03T12:23:58.521Z,18.30
2019-04-03T12:28:05.394Z,18.30
2019-04-03T12:32:10.346Z,18.40
2019-04-03T12:36:15.060Z,18.40
2019-04-03T12:40:19.629Z,18.50
2019-04-03T12:44:24.332Z,18.60
2019-04-03T12:48:28.770Z,18.60
2019-04-03T12:52:33.407Z,18.70
2019-04-03T12:56:38.219Z,18.70
2019-04-03T13:00:45.140Z,18.80
2019-04-03T13:04:49.058Z,18.80
2019-04-03T13:08:53.834Z,18.80
2019-04-03T13:12:58.721Z,18.90
2019-04-03T13:17:03.870Z,19.00
2019-04-03T13:21:09.374Z,19.00
2019-04-03T13:25:15.199Z,19.10
2019-04-03T13:29:21.733Z,19.00
2019-04-03T13:33:26.027Z,19.10
2019-04-03T13:37:30.853Z,19.10
2019-04-03T13:41:35.571Z,19.10
2019-04-03T13:45:40.087Z,19.10
2019-04-03T13:49:44.665Z,19.10
2019-04-03T13:53:50.974Z,19.10
2019-04-03T13:57:55.314Z,19.10
2019-04-03T14:02:03.161Z,19.10
2019-04-03T14:06:07.613Z,19.20
2019-04-03T14:10:12.363Z,19.20
2019-04-03T14:14:17.942Z,19.20
2019-04-03T14:18:22.729Z,19.20
2019-04-03T14:22:27.456Z,19.20
2019-04-03T14:26:33.879Z,19.30
2019-04-03T14:30:38.476Z,19.30
2019-04-03T14:34:43.085Z,19.30
2019-04-03T14:38:47.914Z,19.30
2019-04-03T14:42:52.490Z,19.30
2019-04-03T14:46:57.006Z,19.30
2019-04-03T14:51:01.924Z,19.30
2019-04-03T14:55:16.614Z,19.30
2019-04-03T14:59:14.050Z,19.30
2019-04-03T15:03:19.174Z,19.30
2019-04-03T15:07:24.111Z,19.30
2019-04-03T15:11:28.955Z,19.30
2019-04-03T15:15:33.421Z,19.30
2019-04-03T15:19:38.081Z,19.30
2019-04-03T15:23:42.968Z,19.30
2019-04-03T15:27:50.987Z,19.40
2019-04-03T15:31:55.841Z,19.40
2019-04-03T15:36:03.959Z,19.40
2019-04-03T15:40:10.861Z,19.40
2019-04-03T15:44:15.394Z,19.40
2019-04-03T15:48:22.049Z,19.50
2019-04-03T15:52:26.282Z,19.50
2019-04-03T15:56:31.259Z,19.50
2019-04-03T16:00:36.954Z,19.50
2019-04-03T16:04:41.914Z,19.50
2019-04-03T16:08:47.907Z,19.50
2019-04-03T16:12:53.163Z,19.50
2019-04-03T16:17:00.656Z,19.50
2019-04-03T16:21:03.847Z,19.50
2019-04-03T16:25:10.554Z,19.50
2019-04-03T16:29:15.337Z,19.50
2019-04-03T16:33:23.525Z,19.50
2019-04-03T16:37:26.435Z,19.50
2019-04-03T16:41:31.407Z,19.50
2019-04-03T16:45:39.242Z,19.50
2019-04-03T16:49:44.599Z,19.50
2019-04-03T16:53:49.499Z,19.40
2019-04-03T16:57:55.610Z,19.40
2019-04-03T17:02:00.293Z,19.40
2019-04-03T17:06:05.071Z,19.30
2019-04-03T17:10:10.462Z,19.30
2019-04-03T17:14:15.279Z,19.20
2019-04-03T17:18:19.752Z,19.10
2019-04-03T17:22:24.572Z,19.10
2019-04-03T17:56:51.688Z,20.50
2019-04-03T18:00:55.500Z,19.90
2019-04-03T18:04:59.198Z,20.00
2019-04-03T18:09:04.752Z,19.90
2019-04-03T18:13:09.663Z,19.80
2019-04-03T18:17:13.374Z,19.60
2019-04-03T18:21:17.649Z,19.60
2019-04-03T18:25:21.436Z,19.60
2019-04-03T18:29:25.159Z,19.60
2019-04-03T18:33:28.946Z,19.50
2019-04-03T18:37:34.447Z,19.50
2019-04-03T18:41:38.360Z,19.40
2019-04-03T18:45:42.533Z,19.50
2019-04-03T18:49:46.393Z,19.40
2019-04-03T18:53:50.545Z,19.40
2019-04-03T18:57:54.982Z,19.40
2019-04-03T19:01:58.824Z,19.40
2019-04-03T19:06:02.708Z,19.40
2019-04-03T19:10:07.855Z,19.40
2019-04-03T19:14:11.849Z,19.40
2019-04-03T19:18:19.777Z,19.40
2019-04-03T19:22:21.545Z,19.40
2019-04-03T19:26:28.392Z,19.40
2019-04-03T19:30:32.102Z,19.40
2019-04-03T19:34:35.785Z,19.40
2019-04-03T19:38:39.482Z,19.40
2019-04-03T19:42:43.899Z,19.40
2019-04-03T19:46:48.185Z,19.40
2019-04-03T19:50:53.245Z,19.40
2019-04-03T19:54:56.929Z,19.40
2019-04-03T19:59:00.681Z,19.40
2019-04-03T20:03:04.363Z,19.40
2019-04-03T20:07:08.091Z,19.40
2019-04-03T20:11:11.878Z,19.30
2019-04-03T20:15:15.569Z,19.30
2019-04-03T20:19:19.544Z,19.30
2019-04-03T20:23:23.182Z,19.30
2019-04-03T20:27:27.642Z,19.30
2019-04-03T20:31:31.405Z,19.30
2019-04-03T20:35:35.096Z,19.30
2019-04-03T20:39:38.782Z,19.30
2019-04-03T20:43:43.323Z,19.30
2019-04-03T20:47:48.022Z,19.30
2019-04-03T20:51:51.687Z,19.30
2019-04-03T20:55:57.711Z,19.30
2019-04-03T21:00:03.164Z,19.30
2019-04-03T21:04:08.634Z,19.30
2019-04-03T21:08:12.358Z,19.30
2019-04-03T21:12:16.116Z,19.30
2019-04-03T21:16:19.809Z,19.30
2019-04-03T21:20:23.797Z,19.30
2019-04-03T21:24:28.941Z,19.30
2019-04-03T21:28:32.596Z,19.30
2019-04-03T21:32:36.238Z,19.30
2019-04-03T21:36:39.916Z,19.30
2019-04-03T21:40:45.019Z,19.30
2019-04-03T21:44:49.183Z,19.30
2019-04-03T21:48:53.841Z,19.30
2019-04-03T21:52:57.498Z,19.30
2019-04-03T21:57:01.162Z,19.30
2019-04-03T22:01:23.983Z,19.30
2019-04-03T22:05:27.657Z,19.30
2019-04-03T22:09:31.474Z,19.30
2019-04-03T22:13:38.182Z,19.30
2019-04-03T22:17:43.588Z,19.30
2019-04-03T22:21:46.963Z,19.30
2019-04-03T22:25:50.600Z,19.30
2019-04-03T22:29:54.249Z,19.20
2019-04-03T22:33:58.892Z,19.30
2019-04-03T22:38:05.301Z,19.20
2019-04-03T22:42:08.705Z,19.30
2019-04-03T22:46:12.369Z,19.30
2019-04-03T22:50:16.170Z,19.20
2019-04-03T22:54:19.800Z,19.30
2019-04-03T22:58:23.569Z,19.20
2019-04-03T23:02:27.331Z,19.20
2019-04-03T23:06:30.999Z,19.20
2019-04-03T23:10:35.160Z,19.20
2019-04-03T23:14:39.265Z,19.20
2019-04-03T23:18:42.914Z,19.20
2019-04-03T23:22:46.923Z,19.20
2019-04-03T23:26:50.571Z,19.20
2019-04-03T23:30:54.226Z,19.30
2019-04-03T23:34:57.879Z,19.30
2019-04-03T23:39:03.599Z,19.30
2019-04-03T23:43:09.466Z,19.20
2019-04-03T23:47:15.082Z,19.20
2019-04-03T23:51:23.375Z,19.20
2019-04-03T23:55:25.092Z,19.20
2019-04-03T23:59:28.799Z,19.20
